createdAt,value
2024-03-28T00:01:28.816Z,12.80
2024-03-28T00:03:56.664Z,12.70
2024-03-28T00:06:24.808Z,12.68
2024-03-28T00:08:52.794Z,12.60
2024-03-28T00:11:20.698Z,12.60
2024-03-28T00:13:48.543Z,12.60
2024-03-28T00:16:16.510Z,12.60
2024-03-28T00:18:44.405Z,12.50
2024-03-28T00:21:12.251Z,12.50
2024-03-28T00:23:40.098Z,12.40
2024-03-28T00:26:09.430Z,12.36
2024-03-28T00:28:37.345Z,12.40
2024-03-28T00:31:10.594Z,12.30
2024-03-28T00:33:38.464Z,12.30
2024-03-28T00:36:07.207Z,12.40
2024-03-28T00:38:35.298Z,12.40
2024-03-28T00:41:03.945Z,12.40
2024-03-28T00:43:31.905Z,12.42
2024-03-28T00:46:03.295Z,12.50
2024-03-28T00:48:31.348Z,12.48
2024-03-28T00:51:00.130Z,12.40
2024-03-28T00:53:28.667Z,12.40
2024-03-28T00:55:58.772Z,12.40
2024-03-28T00:58:27.958Z,12.40
2024-03-28T01:00:55.800Z,12.40
2024-03-28T01:03:23.808Z,12.40
2024-03-28T01:05:58.550Z,12.30
2024-03-28T01:08:27.433Z,12.32
2024-03-28T01:10:55.630Z,12.34
2024-03-28T01:13:23.497Z,12.30
2024-03-28T01:15:51.626Z,12.32
2024-03-28T01:18:19.618Z,12.30
2024-03-28T01:20:47.685Z,12.30
2024-03-28T01:23:15.610Z,12.30
2024-03-28T01:25:43.554Z,12.30
2024-03-28T01:28:13.919Z,12.20
2024-03-28T01:30:42.048Z,12.26
2024-03-28T01:33:10.143Z,12.20
2024-03-28T01:35:38.194Z,12.18
2024-03-28T01:38:06.146Z,12.10
2024-03-28T01:40:34.214Z,12.10
2024-03-28T01:43:08.435Z,12.10
2024-03-28T01:45:36.266Z,12.14
2024-03-28T01:48:04.807Z,12.10
2024-03-28T01:50:32.885Z,12.10
2024-03-28T01:53:01.016Z,12.04
2024-03-28T01:55:29.195Z,12.00
2024-03-28T01:58:00.821Z,12.00
2024-03-28T02:00:29.473Z,11.90
2024-03-28T02:02:58.153Z,11.90
2024-03-28T02:05:26.083Z,11.90
2024-03-28T02:07:54.135Z,11.80
2024-03-28T02:10:22.929Z,11.78
2024-03-28T02:12:50.897Z,11.70
2024-03-28T02:15:18.837Z,11.72
2024-03-28T02:17:50.146Z,11.70
2024-03-28T02:20:18.679Z,11.70
2024-03-28T02:22:46.808Z,11.70
2024-03-28T02:25:15.116Z,11.60
2024-03-28T02:27:43.283Z,11.62
2024-03-28T02:30:12.525Z,11.60
2024-03-28T02:32:40.703Z,11.60
2024-03-28T02:35:09.365Z,11.54
2024-03-28T02:37:37.397Z,11.50
2024-03-28T02:40:06.364Z,11.40
2024-03-28T02:42:34.515Z,11.30
2024-03-28T02:45:02.487Z,11.30
2024-03-28T02:47:30.474Z,11.20
2024-03-28T02:49:58.436Z,11.26
2024-03-28T02:52:26.614Z,11.30
2024-03-28T02:54:54.535Z,11.30
2024-03-28T02:57:23.561Z,11.20
2024-03-28T02:59:51.514Z,11.20
2024-03-28T03:02:19.609Z,11.20
2024-03-28T03:04:47.839Z,11.26
2024-03-28T03:07:17.036Z,11.30
2024-03-28T03:09:44.938Z,11.30
2024-03-28T03:12:13.221Z,11.20
2024-03-28T03:14:41.134Z,11.22
2024-03-28T03:17:10.577Z,11.32
2024-03-28T03:19:38.798Z,11.30
2024-03-28T03:22:07.354Z,11.30
2024-03-28T03:24:40.016Z,11.30
2024-03-28T03:27:17.323Z,11.24
2024-03-28T03:30:04.442Z,11.30
2024-03-28T03:32:50.884Z,11.36
2024-03-28T03:35:18.975Z,11.30
2024-03-28T03:37:47.600Z,11.30
2024-03-28T03:40:15.897Z,11.30
2024-03-28T03:42:43.863Z,11.30
2024-03-28T03:45:11.912Z,11.30
2024-03-28T03:47:39.833Z,11.40
2024-03-28T03:50:08.420Z,11.40
2024-03-28T03:52:36.329Z,11.40
2024-03-28T03:55:04.759Z,11.34
2024-03-28T03:57:32.706Z,11.40
2024-03-28T04:00:00.621Z,11.30
2024-03-28T04:02:28.962Z,11.20
2024-03-28T04:04:57.025Z,11.24
2024-03-28T04:07:25.064Z,11.26
2024-03-28T04:09:53.110Z,11.20
2024-03-28T04:12:21.080Z,11.24
2024-03-28T04:14:49.192Z,11.30
2024-03-28T04:17:17.358Z,11.12
2024-03-28T04:19:45.661Z,11.18
2024-03-28T04:22:13.768Z,11.04
2024-03-28T04:24:41.727Z,11.10
2024-03-28T04:27:09.855Z,11.10
2024-03-28T04:29:52.066Z,11.18
2024-03-28T04:32:24.194Z,11.04
2024-03-28T04:34:52.193Z,11.10
2024-03-28T04:37:20.675Z,11.10
2024-03-28T04:39:48.626Z,11.08
2024-03-28T04:42:16.490Z,11.10
2024-03-28T04:44:44.316Z,11.20
2024-03-28T04:47:12.279Z,11.26
2024-03-28T04:49:40.323Z,11.36
2024-03-28T04:52:08.483Z,11.30
2024-03-28T04:54:36.566Z,11.40
2024-03-28T04:57:06.558Z,11.40
2024-03-28T04:59:35.095Z,11.40
2024-03-28T05:02:03.193Z,11.38
2024-03-28T05:04:31.350Z,11.40
2024-03-28T05:06:59.339Z,11.42
2024-03-28T05:09:28.130Z,11.40
2024-03-28T05:11:56.069Z,11.40
2024-03-28T05:14:24.010Z,11.40
2024-03-28T05:16:52.994Z,11.52
2024-03-28T05:19:22.116Z,11.60
2024-03-28T05:21:50.033Z,11.72
2024-03-28T05:24:17.943Z,11.90
2024-03-28T05:26:45.850Z,12.10
2024-03-28T05:29:13.733Z,12.28
2024-03-28T05:31:41.743Z,12.36
2024-03-28T05:34:09.618Z,12.40
2024-03-28T05:36:38.389Z,12.40
2024-03-28T05:39:06.308Z,12.40
2024-03-28T05:41:37.711Z,12.30
2024-03-28T05:44:06.090Z,12.20
2024-03-28T05:46:34.232Z,12.40
2024-03-28T05:49:02.114Z,12.30
2024-03-28T05:51:30.022Z,12.30
2024-03-28T05:53:57.861Z,12.40
2024-03-28T05:56:26.245Z,12.50
2024-03-28T05:58:54.161Z,12.58
2024-03-28T06:01:22.335Z,12.70
2024-03-28T06:03:50.306Z,12.80
2024-03-28T06:06:18.446Z,12.88
2024-03-28T06:08:46.606Z,12.90
2024-03-28T06:11:14.701Z,13.00
2024-03-28T06:13:42.569Z,13.18
2024-03-28T06:16:10.623Z,13.18
2024-03-28T06:18:38.685Z,13.30
2024-03-28T06:21:06.782Z,13.30
2024-03-28T06:23:35.005Z,13.40
2024-03-28T06:26:03.599Z,13.50
2024-03-28T06:28:32.372Z,13.44
2024-03-28T06:31:00.715Z,13.46
2024-03-28T06:33:28.787Z,13.40
2024-03-28T06:35:56.955Z,13.42
2024-03-28T06:38:24.938Z,13.24
2024-03-28T06:41:02.433Z,13.24
2024-03-28T06:43:30.371Z,13.20
2024-03-28T06:45:58.289Z,13.06
2024-03-28T06:48:26.176Z,13.14
2024-03-28T06:50:54.080Z,13.20
2024-03-28T06:53:22.052Z,13.12
2024-03-28T06:55:49.990Z,13.10
2024-03-28T06:58:17.841Z,13.14
2024-03-28T07:00:45.792Z,13.20
2024-03-28T07:03:14.077Z,13.20
2024-03-28T07:05:42.093Z,13.10
2024-03-28T07:08:09.987Z,13.10
2024-03-28T07:10:38.173Z,12.90
2024-03-28T07:13:06.610Z,12.82
2024-03-28T07:15:34.829Z,12.76
2024-03-28T07:18:02.793Z,12.70
2024-03-28T07:20:30.819Z,12.60
2024-03-28T07:22:58.901Z,12.40
2024-03-28T07:25:29.363Z,12.30
2024-03-28T07:27:58.341Z,12.10
2024-03-28T07:30:26.197Z,12.00
2024-03-28T07:32:54.017Z,12.00
2024-03-28T07:35:21.857Z,12.10
2024-03-28T07:37:49.804Z,12.10
2024-03-28T07:40:17.790Z,12.16
2024-03-28T07:42:47.022Z,12.24
2024-03-28T07:45:15.014Z,12.20
2024-03-28T07:47:42.945Z,12.30
2024-03-28T07:50:12.776Z,12.22
2024-03-28T07:52:40.761Z,12.10
2024-03-28T07:55:09.653Z,12.00
2024-03-28T07:57:37.669Z,12.00
2024-03-28T08:00:07.368Z,11.90
2024-03-28T08:02:35.323Z,11.80
2024-03-28T08:05:03.622Z,11.78
2024-03-28T08:07:31.659Z,11.70
2024-03-28T08:09:59.639Z,11.60
2024-03-28T08:12:28.247Z,11.50
2024-03-28T08:14:56.230Z,11.40
2024-03-28T08:17:24.172Z,11.40
2024-03-28T08:19:52.084Z,11.30
2024-03-28T08:22:20.890Z,11.10
2024-03-28T08:24:48.872Z,11.00
2024-03-28T08:27:16.747Z,10.94
2024-03-28T08:29:45.606Z,10.90
2024-03-28T08:32:13.589Z,10.90
2024-03-28T08:34:41.872Z,10.90
2024-03-28T08:37:10.338Z,11.10
2024-03-28T08:39:38.537Z,11.20
2024-03-28T08:42:06.464Z,11.20
2024-03-28T08:44:34.396Z,11.20
2024-03-28T08:47:03.362Z,11.20
2024-03-28T08:49:31.358Z,11.30
2024-03-28T08:51:59.324Z,11.30
2024-03-28T08:54:27.352Z,11.38
2024-03-28T08:56:55.189Z,11.40
2024-03-28T08:59:23.076Z,11.40
2024-03-28T09:01:51.350Z,11.40
2024-03-28T09:04:20.483Z,11.50
2024-03-28T09:06:48.511Z,11.50
2024-03-28T09:09:16.979Z,11.60
2024-03-28T09:11:45.875Z,11.58
2024-03-28T09:14:13.675Z,11.58
2024-03-28T09:16:41.673Z,11.54
2024-03-28T09:19:09.622Z,11.50
2024-03-28T09:21:37.607Z,11.50
2024-03-28T09:24:08.824Z,11.50
2024-03-28T09:26:36.825Z,11.50
2024-03-28T09:29:04.900Z,11.60
2024-03-28T09:31:33.887Z,11.60
2024-03-28T09:34:01.934Z,11.60
2024-03-28T09:36:30.029Z,11.58
2024-03-28T09:38:58.030Z,11.50
2024-03-28T09:41:30.648Z,11.50
2024-03-28T09:44:01.518Z,11.40
2024-03-28T09:46:30.603Z,11.40
2024-03-28T09:48:59.909Z,11.40
2024-03-28T09:51:28.119Z,11.60
2024-03-28T09:53:59.044Z,11.70
2024-03-28T09:56:26.990Z,12.00
2024-03-28T09:58:55.863Z,12.14
2024-03-28T10:01:23.785Z,12.40
2024-03-28T10:04:16.813Z,12.60
2024-03-28T10:06:48.539Z,12.80
2024-03-28T10:09:16.578Z,12.90
2024-03-28T10:11:44.663Z,13.20
2024-03-28T10:14:17.596Z,13.32
2024-03-28T10:16:49.944Z,13.58
2024-03-28T10:19:19.413Z,13.96
2024-03-28T10:21:47.307Z,14.36
2024-03-28T10:24:18.590Z,14.78
2024-03-28T10:26:46.707Z,15.00
2024-03-28T10:29:15.578Z,15.06
2024-03-28T10:31:43.608Z,15.14
2024-03-28T10:34:15.668Z,15.74
2024-03-28T10:36:43.706Z,16.98
2024-03-28T10:39:12.922Z,18.58
2024-03-28T10:41:41.002Z,19.62
2024-03-28T10:44:10.942Z,20.82
2024-03-28T10:46:40.047Z,21.16
2024-03-28T10:49:08.064Z,21.96
2024-03-28T10:51:38.084Z,22.66
2024-03-28T10:54:22.192Z,23.50
2024-03-28T10:56:51.162Z,23.90
2024-03-28T10:59:19.180Z,24.10
2024-03-28T11:01:46.992Z,24.44
2024-03-28T11:04:17.829Z,24.98
2024-03-28T11:06:46.126Z,25.70
2024-03-28T11:09:14.873Z,25.40
2024-03-28T11:11:42.729Z,26.00
2024-03-28T11:14:10.577Z,25.90
2024-03-28T11:16:38.800Z,26.08
2024-03-28T11:19:07.368Z,25.94
2024-03-28T11:21:35.314Z,26.10
2024-03-28T11:24:03.684Z,25.64
2024-03-28T11:26:31.649Z,25.40
2024-03-28T11:29:03.904Z,25.08
2024-03-28T11:31:32.036Z,25.94
2024-03-28T11:34:00.370Z,26.00
2024-03-28T11:36:29.127Z,26.30
2024-03-28T11:38:57.097Z,25.90
2024-03-28T11:41:25.814Z,25.24
2024-03-28T11:43:55.061Z,25.56
2024-03-28T11:46:30.690Z,24.96
2024-03-28T11:49:00.305Z,25.36
2024-03-28T11:51:28.591Z,25.78
2024-03-28T11:54:03.472Z,25.82
2024-03-28T11:56:32.850Z,25.52
2024-03-28T11:59:01.008Z,25.82
2024-03-28T12:01:28.979Z,25.28
2024-03-28T12:03:56.927Z,24.80
2024-03-28T12:06:24.856Z,25.06
2024-03-28T12:08:52.770Z,24.34
2024-03-28T12:11:20.765Z,24.86
2024-03-28T12:13:49.677Z,25.38
2024-03-28T12:16:17.817Z,25.70
2024-03-28T12:18:46.000Z,24.74
2024-03-28T12:21:16.217Z,24.64
2024-03-28T12:23:44.253Z,24.82
2024-03-28T12:26:19.374Z,24.30
2024-03-28T12:28:47.686Z,24.60
2024-03-28T12:31:22.590Z,23.64
2024-03-28T12:33:51.084Z,23.26
2024-03-28T12:36:26.767Z,23.22
2024-03-28T12:38:57.265Z,23.90
2024-03-28T12:41:25.553Z,23.40
2024-03-28T12:43:58.461Z,23.24
2024-03-28T12:46:26.612Z,23.00
2024-03-28T12:48:54.510Z,22.90
2024-03-28T12:51:22.415Z,22.70
2024-03-28T12:53:50.405Z,23.26
2024-03-28T12:56:18.689Z,23.46
2024-03-28T12:58:47.309Z,24.14
2024-03-28T13:01:15.252Z,22.80
2024-03-28T13:03:43.232Z,22.36
2024-03-28T13:06:11.147Z,21.54
2024-03-28T13:08:39.087Z,21.20
2024-03-28T13:11:07.935Z,20.72
2024-03-28T13:13:35.900Z,21.54
2024-03-28T13:16:04.915Z,22.30
2024-03-28T13:18:32.750Z,21.86
2024-03-28T13:21:02.121Z,20.92
2024-03-28T13:23:30.061Z,21.40
2024-03-28T13:26:10.512Z,21.74
2024-03-28T13:28:46.111Z,21.86
2024-03-28T13:31:14.029Z,22.30
2024-03-28T13:33:41.909Z,22.12
2024-03-28T13:36:10.114Z,21.32
2024-03-28T13:38:38.140Z,20.74
2024-03-28T13:41:06.001Z,20.40
2024-03-28T13:43:33.981Z,20.04
2024-03-28T13:46:01.822Z,19.40
2024-03-28T13:48:33.812Z,18.60
2024-03-28T13:51:01.841Z,18.26
2024-03-28T13:53:32.875Z,18.18
2024-03-28T13:56:00.777Z,18.12
2024-03-28T13:58:29.159Z,18.60
2024-03-28T14:00:57.561Z,18.70
2024-03-28T14:03:25.636Z,18.70
2024-03-28T14:06:03.585Z,18.66
2024-03-28T14:08:31.985Z,18.20
2024-03-28T14:10:59.981Z,18.26
2024-03-28T14:13:28.023Z,18.08
2024-03-28T14:15:56.288Z,18.00
2024-03-28T14:18:24.308Z,18.16
2024-03-28T14:20:52.215Z,18.10
2024-03-28T14:23:20.269Z,17.90
2024-03-28T14:25:48.115Z,17.80
2024-03-28T14:28:16.008Z,17.66
2024-03-28T14:30:44.057Z,17.38
2024-03-28T14:33:11.999Z,17.08
2024-03-28T14:35:40.004Z,16.90
2024-03-28T14:38:07.974Z,16.90
2024-03-28T14:40:39.291Z,16.80
2024-03-28T14:43:07.224Z,16.70
2024-03-28T14:45:36.034Z,16.70
2024-03-28T14:48:04.581Z,16.70
2024-03-28T14:50:32.804Z,16.80
2024-03-28T14:53:00.772Z,16.98
2024-03-28T14:55:28.796Z,17.04
2024-03-28T14:57:58.706Z,17.00
2024-03-28T15:00:27.806Z,17.00
2024-03-28T15:02:55.705Z,17.00
2024-03-28T15:05:23.645Z,17.04
2024-03-28T15:07:54.443Z,16.92
2024-03-28T15:10:22.343Z,16.88
2024-03-28T15:12:50.277Z,16.68
2024-03-28T15:15:18.370Z,16.66
2024-03-28T15:17:46.322Z,16.60
2024-03-28T15:20:30.398Z,16.50
2024-03-28T15:22:58.402Z,16.40
2024-03-28T15:25:30.131Z,16.42
2024-03-28T15:27:59.282Z,16.30
2024-03-28T15:30:28.144Z,16.20
2024-03-28T15:32:56.801Z,16.10
2024-03-28T15:35:24.790Z,16.20
2024-03-28T15:37:53.250Z,16.10
2024-03-28T15:40:21.577Z,16.10
2024-03-28T15:42:49.684Z,16.10
2024-03-28T15:45:17.758Z,16.10
2024-03-28T15:47:46.029Z,16.00
2024-03-28T15:50:16.603Z,15.96
2024-03-28T15:52:48.538Z,15.90
2024-03-28T15:55:16.776Z,15.90
2024-03-28T15:57:44.791Z,15.86
2024-03-28T16:00:13.283Z,15.70
2024-03-28T16:02:42.278Z,15.70
2024-03-28T16:05:10.373Z,15.70
2024-03-28T16:07:38.234Z,15.60
2024-03-28T16:10:06.471Z,15.60
2024-03-28T16:12:36.244Z,15.50
2024-03-28T16:15:04.480Z,15.58
2024-03-28T16:17:32.483Z,15.60
2024-03-28T16:20:01.137Z,15.58
2024-03-28T16:22:29.180Z,15.60
2024-03-28T16:24:57.121Z,15.64
2024-03-28T16:27:25.053Z,15.60
2024-03-28T16:29:53.173Z,15.52
2024-03-28T16:32:21.032Z,15.50
2024-03-28T16:34:49.575Z,15.40
2024-03-28T16:37:17.520Z,15.40
2024-03-28T16:39:45.477Z,15.30
2024-03-28T16:42:13.424Z,15.30
2024-03-28T16:44:41.316Z,15.30
2024-03-28T16:47:12.393Z,15.30
2024-03-28T16:49:40.476Z,15.28
2024-03-28T16:52:09.146Z,15.20
2024-03-28T16:54:37.293Z,15.10
2024-03-28T16:57:05.661Z,15.10
2024-03-28T16:59:33.668Z,14.92
2024-03-28T17:02:01.502Z,14.90
2024-03-28T17:04:31.632Z,14.74
2024-03-28T17:06:59.679Z,14.70
2024-03-28T17:09:27.932Z,14.60
2024-03-28T17:11:55.894Z,14.60
2024-03-28T17:14:23.878Z,14.50
2024-03-28T17:16:51.732Z,14.30
2024-03-28T17:19:20.383Z,14.30
2024-03-28T17:21:48.402Z,14.18
2024-03-28T17:24:19.515Z,14.10
2024-03-28T17:26:47.467Z,14.10
2024-03-28T17:29:16.538Z,14.10
2024-03-28T17:31:44.511Z,14.10
2024-03-28T17:34:12.664Z,14.00
2024-03-28T17:36:40.798Z,13.86
2024-03-28T17:39:08.690Z,13.70
2024-03-28T17:41:37.448Z,13.68
2024-03-28T17:44:05.491Z,13.60
2024-03-28T17:46:33.484Z,13.60
2024-03-28T17:49:02.062Z,13.50
2024-03-28T17:51:30.117Z,13.40
2024-03-28T17:54:00.212Z,13.40
2024-03-28T17:56:29.300Z,13.32
2024-03-28T17:58:57.213Z,13.26
2024-03-28T18:01:25.086Z,13.30
2024-03-28T18:03:53.611Z,13.30
2024-03-28T18:06:21.547Z,13.40
2024-03-28T18:08:49.508Z,13.34
2024-03-28T18:11:17.881Z,13.30
2024-03-28T18:13:49.522Z,13.30
2024-03-28T18:16:18.887Z,13.34
2024-03-28T18:18:46.900Z,13.30
2024-03-28T18:21:16.035Z,13.40
2024-03-28T18:23:44.024Z,13.40
2024-03-28T18:26:12.467Z,13.40
2024-03-28T18:28:40.386Z,13.30
2024-03-28T18:31:08.376Z,13.40
2024-03-28T18:33:37.071Z,13.36
2024-03-28T18:36:05.414Z,13.40
2024-03-28T18:38:33.287Z,13.50
2024-03-28T18:41:09.004Z,13.50
2024-03-28T18:43:38.428Z,13.50
2024-03-28T18:46:06.560Z,13.50
2024-03-28T18:48:34.671Z,13.60
2024-03-28T18:51:02.465Z,13.50
2024-03-28T18:53:30.522Z,13.50
2024-03-28T18:56:02.102Z,13.50
2024-03-28T18:58:30.040Z,13.50
2024-03-28T19:00:58.040Z,13.40
2024-03-28T19:03:27.720Z,13.24
2024-03-28T19:05:56.258Z,13.10
2024-03-28T19:08:24.226Z,13.06
2024-03-28T19:10:52.366Z,13.00
2024-03-28T19:13:20.483Z,12.96
2024-03-28T19:15:52.312Z,13.08
2024-03-28T19:18:22.933Z,13.30
2024-03-28T19:20:51.016Z,13.40
2024-03-28T19:23:18.956Z,13.54
2024-03-28T19:25:46.953Z,13.60
2024-03-28T19:28:14.934Z,13.70
2024-03-28T19:30:44.258Z,13.70
2024-03-28T19:33:12.331Z,13.70
2024-03-28T19:35:40.796Z,13.50
2024-03-28T19:38:11.133Z,13.32
2024-03-28T19:40:39.126Z,13.14
2024-03-28T19:43:07.046Z,13.00
2024-03-28T19:45:36.053Z,12.90
2024-03-28T19:48:05.357Z,12.74
2024-03-28T19:50:35.201Z,12.60
2024-03-28T19:53:03.837Z,12.50
2024-03-28T19:55:32.208Z,12.40
2024-03-28T19:58:00.257Z,12.38
2024-03-28T20:00:29.287Z,12.40
2024-03-28T20:02:57.702Z,12.40
2024-03-28T20:05:26.418Z,12.50
2024-03-28T20:07:54.967Z,12.50
2024-03-28T20:10:22.982Z,12.60
2024-03-28T20:12:51.204Z,12.60
2024-03-28T20:15:19.096Z,12.60
2024-03-28T20:17:47.286Z,12.60
2024-03-28T20:20:15.198Z,12.60
2024-03-28T20:22:43.214Z,12.60
2024-03-28T20:25:14.081Z,12.60
2024-03-28T20:27:42.231Z,12.60
2024-03-28T20:30:12.286Z,12.70
2024-03-28T20:32:40.104Z,12.80
2024-03-28T20:35:08.322Z,12.86
2024-03-28T20:37:36.312Z,12.90
2024-03-28T20:40:04.612Z,13.00
2024-03-28T20:42:32.660Z,13.04
2024-03-28T20:45:01.895Z,13.00
2024-03-28T20:47:29.791Z,13.00
2024-03-28T20:50:01.013Z,13.00
2024-03-28T20:52:29.042Z,12.96
2024-03-28T20:54:56.987Z,12.94
2024-03-28T20:57:25.645Z,12.90
2024-03-28T20:59:54.679Z,12.70
2024-03-28T21:02:23.451Z,12.60
2024-03-28T21:04:52.523Z,12.60
2024-03-28T21:07:39.333Z,12.60
2024-03-28T21:10:26.150Z,12.52
2024-03-28T21:12:54.042Z,12.50
2024-03-28T21:15:22.099Z,12.40
2024-03-28T21:17:50.260Z,12.24
2024-03-28T21:20:19.432Z,12.30
2024-03-28T21:22:47.306Z,12.20
2024-03-28T21:25:16.124Z,12.20
2024-03-28T21:27:44.230Z,12.30
2024-03-28T21:30:13.278Z,12.30
2024-03-28T21:32:42.028Z,12.40
2024-03-28T21:35:10.060Z,12.60
2024-03-28T21:37:38.188Z,12.74
2024-03-28T21:40:06.772Z,12.80
2024-03-28T21:42:34.954Z,12.80
2024-03-28T21:45:13.780Z,12.80
2024-03-28T21:47:44.422Z,12.80
2024-03-28T21:50:12.463Z,12.84
2024-03-28T21:52:40.779Z,12.80
2024-03-28T21:55:08.941Z,12.90
2024-03-28T21:57:36.911Z,12.80
2024-03-28T22:00:05.774Z,12.80
2024-03-28T22:02:33.669Z,12.80
2024-03-28T22:05:01.830Z,12.70
2024-03-28T22:07:29.944Z,12.70
2024-03-28T22:09:57.934Z,12.70
2024-03-28T22:12:25.838Z,12.60
2024-03-28T22:14:54.087Z,12.50
2024-03-28T22:17:22.098Z,12.50
2024-03-28T22:19:50.294Z,12.48
2024-03-28T22:22:18.203Z,12.42
2024-03-28T22:24:46.175Z,12.60
2024-03-28T22:27:14.096Z,12.82
2024-03-28T22:29:42.416Z,13.02
2024-03-28T22:32:10.337Z,13.36
2024-03-28T22:34:40.254Z,13.50
2024-03-28T22:37:08.220Z,13.60
2024-03-28T22:39:36.254Z,13.70
2024-03-28T22:42:05.388Z,13.82
2024-03-28T22:44:33.280Z,13.90
2024-03-28T22:47:01.338Z,13.90
2024-03-28T22:49:29.413Z,13.90
2024-03-28T22:51:57.371Z,13.90
2024-03-28T22:54:25.415Z,13.80
2024-03-28T22:56:53.458Z,13.82
2024-03-28T22:59:21.542Z,13.90
2024-03-28T23:01:49.447Z,14.00
2024-03-28T23:04:17.483Z,14.40
2024-03-28T23:06:46.954Z,14.66
2024-03-28T23:09:14.911Z,15.00
2024-03-28T23:11:42.857Z,15.00
2024-03-28T23:14:10.860Z,15.10
2024-03-28T23:16:38.908Z,15.00
2024-03-28T23:19:08.754Z,14.90
2024-03-28T23:21:37.834Z,14.88
2024-03-28T23:24:07.363Z,14.80
2024-03-28T23:26:35.716Z,14.80
2024-03-28T23:29:04.889Z,14.80
2024-03-28T23:31:34.669Z,14.80
2024-03-28T23:34:07.143Z,14.86
2024-03-28T23:36:35.270Z,14.80
2024-03-28T23:39:03.363Z,14.80
2024-03-28T23:41:31.354Z,14.90
2024-03-28T23:43:59.406Z,14.90
2024-03-28T23:46:27.435Z,14.94
2024-03-28T23:48:55.943Z,15.06
2024-03-28T23:51:23.894Z,15.12
2024-03-28T23:53:51.820Z,15.10
2024-03-28T23:56:19.842Z,15.10
2024-03-28T23:58:47.876Z,15.08
